createdAt,value
2022-08-05T00:01:30.244Z,5.75
2022-08-05T00:04:03.883Z,8.55
2022-08-05T00:06:33.264Z,7.10
2022-08-05T00:09:00.993Z,2.97
2022-08-05T00:11:34.607Z,6.15
2022-08-05T00:14:12.071Z,3.90
2022-08-05T00:16:52.622Z,7.30
2022-08-05T00:19:21.556Z,5.70
2022-08-05T00:21:48.851Z,6.10
2022-08-05T00:24:19.313Z,7.90
2022-08-05T00:26:53.018Z,5.10
2022-08-05T00:29:22.823Z,7.07
2022-08-05T00:32:10.986Z,5.28
2022-08-05T00:34:53.755Z,4.82
2022-08-05T00:37:27.032Z,8.02
2022-08-05T00:40:13.505Z,5.47
2022-08-05T00:42:44.341Z,5.15
2022-08-05T00:45:15.913Z,5.57
2022-08-05T00:47:53.098Z,6.13
2022-08-05T00:50:25.361Z,7.70
2022-08-05T00:52:53.392Z,7.13
2022-08-05T00:55:21.885Z,5.90
2022-08-05T00:57:58.211Z,6.40
2022-08-05T01:00:26.005Z,5.57
2022-08-05T01:02:52.729Z,6.45
2022-08-05T01:05:19.627Z,6.40
2022-08-05T01:08:30.693Z,4.13
2022-08-05T01:13:13.312Z,7.45
2022-08-05T01:15:56.676Z,8.50
2022-08-05T01:18:29.686Z,5.35
2022-08-05T01:21:22.643Z,5.68
2022-08-05T01:24:14.236Z,5.72
2022-08-05T01:26:55.613Z,5.70
2022-08-05T01:29:34.911Z,7.68
2022-08-05T01:32:06.500Z,5.68
2022-08-05T01:34:45.843Z,6.63
2022-08-05T01:37:25.437Z,12.02
2022-08-05T01:39:59.086Z,5.95
2022-08-05T01:42:28.052Z,7.93
2022-08-05T01:44:59.925Z,8.57
2022-08-05T01:47:39.360Z,7.22
2022-08-05T01:50:28.758Z,6.85
2022-08-05T01:53:00.725Z,7.10
2022-08-05T01:55:30.922Z,5.03
2022-08-05T01:58:18.741Z,9.45
2022-08-05T02:00:53.167Z,9.60
2022-08-05T02:03:33.985Z,8.77
2022-08-05T02:06:33.450Z,9.20
2022-08-05T02:08:58.164Z,6.53
2022-08-05T02:11:32.894Z,7.43
2022-08-05T02:14:14.594Z,8.82
2022-08-05T02:16:52.889Z,6.43
2022-08-05T02:19:28.462Z,9.23
2022-08-05T02:22:31.767Z,7.30
2022-08-05T02:25:08.619Z,8.02
2022-08-05T02:27:58.650Z,10.63
2022-08-05T02:30:30.978Z,8.45
2022-08-05T02:33:00.123Z,7.90
2022-08-05T02:35:33.159Z,7.45
2022-08-05T02:38:05.278Z,9.88
2022-08-05T02:40:37.430Z,8.88
2022-08-05T02:43:07.210Z,8.10
2022-08-05T02:45:52.316Z,7.07
2022-08-05T02:48:29.469Z,9.52
2022-08-05T02:50:59.888Z,10.13
2022-08-05T02:53:28.564Z,9.98
2022-08-05T02:56:06.314Z,7.75
2022-08-05T02:58:35.409Z,7.88
2022-08-05T03:01:02.759Z,7.88
2022-08-05T03:03:34.098Z,8.02
2022-08-05T03:06:54.060Z,5.20
2022-08-05T03:09:07.785Z,6.20
2022-08-05T03:11:53.455Z,7.55
2022-08-05T03:14:20.959Z,7.82
2022-08-05T03:16:47.639Z,9.70
2022-08-05T03:19:20.328Z,9.45
2022-08-05T03:22:00.149Z,8.57
2022-08-05T03:24:30.430Z,9.30
2022-08-05T03:26:59.358Z,6.97
2022-08-05T03:29:46.018Z,9.18
2022-08-05T03:32:14.398Z,7.82
2022-08-05T03:34:42.248Z,10.32
2022-08-05T03:37:18.551Z,9.80
2022-08-05T03:40:01.606Z,8.73
2022-08-05T03:42:32.485Z,8.55
2022-08-05T03:45:21.535Z,10.18
2022-08-05T03:47:50.087Z,10.30
2022-08-05T03:50:16.827Z,10.70
2022-08-05T03:55:50.114Z,10.60
2022-08-05T03:56:10.186Z,7.75
2022-08-05T03:58:41.145Z,9.38
2022-08-05T04:01:11.436Z,8.27
2022-08-05T04:03:42.414Z,9.85
2022-08-05T04:06:29.628Z,9.55
2022-08-05T04:08:56.819Z,7.40
2022-08-05T04:11:24.176Z,9.70
2022-08-05T04:14:10.995Z,7.25
2022-08-05T04:16:44.826Z,9.35
2022-08-05T04:19:13.080Z,7.75
2022-08-05T04:22:08.434Z,9.45
2022-08-05T04:24:27.678Z,9.77
2022-08-05T04:26:54.220Z,7.88
2022-08-05T04:29:20.964Z,8.65
2022-08-05T04:31:48.414Z,8.63
2022-08-05T04:34:18.290Z,9.23
2022-08-05T04:36:58.548Z,9.65
2022-08-05T04:39:25.109Z,10.18
2022-08-05T04:41:54.195Z,8.23
2022-08-05T04:44:30.082Z,8.57
2022-08-05T04:47:08.760Z,10.57
2022-08-05T04:49:38.481Z,8.88
2022-08-05T04:52:23.015Z,8.77
2022-08-05T04:54:54.001Z,9.13
2022-08-05T04:57:23.725Z,9.40
2022-08-05T04:59:55.907Z,12.52
2022-08-05T05:02:36.742Z,10.80
2022-08-05T05:05:16.500Z,7.47
2022-08-05T05:07:56.269Z,11.25
2022-08-05T05:10:29.660Z,12.00
2022-08-05T05:12:56.369Z,11.35
2022-08-05T05:15:56.740Z,9.25
2022-08-05T05:18:15.360Z,8.30
2022-08-05T05:20:55.191Z,9.18
2022-08-05T05:23:21.725Z,10.57
2022-08-05T05:25:48.142Z,11.13
2022-08-05T05:28:14.563Z,11.85
2022-08-05T05:30:42.194Z,11.23
2022-08-05T05:33:16.193Z,10.93
2022-08-05T05:35:48.008Z,8.98
2022-08-05T05:38:22.715Z,11.20
2022-08-05T05:40:54.633Z,8.23
2022-08-05T05:43:56.325Z,6.63
2022-08-05T05:46:16.001Z,7.55
2022-08-05T05:48:45.968Z,7.45
2022-08-05T05:51:21.664Z,8.20
2022-08-05T05:53:57.613Z,8.57
2022-08-05T05:56:33.347Z,7.00
2022-08-05T05:59:05.403Z,8.98
2022-08-05T06:01:37.922Z,5.80
2022-08-05T06:04:11.802Z,8.18
2022-08-05T06:06:43.324Z,6.78
2022-08-05T06:09:17.532Z,8.43
2022-08-05T06:12:01.880Z,9.27
2022-08-05T06:14:30.699Z,6.93
2022-08-05T06:16:57.819Z,9.88
2022-08-05T06:19:32.940Z,7.75
2022-08-05T06:22:02.008Z,10.05
2022-08-05T06:24:28.431Z,7.65
2022-08-05T06:26:55.587Z,10.75
2022-08-05T06:29:42.860Z,6.80
2022-08-05T06:32:25.277Z,7.43
2022-08-05T06:34:56.905Z,12.38
2022-08-05T06:37:57.055Z,9.23
2022-08-05T06:40:12.104Z,11.63
2022-08-05T06:42:39.758Z,8.88
2022-08-05T06:45:08.530Z,10.75
2022-08-05T06:48:35.891Z,12.35
2022-08-05T06:50:21.998Z,7.90
2022-08-05T06:52:58.469Z,10.93
2022-08-05T06:55:25.671Z,8.80
2022-08-05T06:57:58.011Z,12.57
2022-08-05T07:00:38.343Z,11.48
2022-08-05T07:03:09.755Z,12.27
2022-08-05T07:05:37.541Z,9.00
2022-08-05T07:08:10.660Z,9.55
2022-08-05T07:10:37.759Z,7.75
2022-08-05T07:13:54.282Z,7.68
2022-08-05T07:18:01.239Z,7.45
2022-08-05T07:19:16.120Z,7.75
2022-08-05T07:22:01.582Z,15.52
2022-08-05T07:24:29.945Z,7.88
2022-08-05T07:26:56.947Z,12.80
2022-08-05T07:29:25.403Z,9.70
2022-08-05T07:32:12.044Z,9.07
2022-08-05T07:34:42.454Z,8.32
2022-08-05T07:37:11.462Z,8.80
2022-08-05T07:40:04.545Z,10.68
2022-08-05T07:42:33.473Z,9.90
2022-08-05T07:45:01.001Z,7.75
2022-08-05T07:47:27.514Z,11.75
2022-08-05T07:50:09.619Z,7.07
2022-08-05T07:52:40.307Z,8.73
2022-08-05T07:55:15.680Z,6.60
2022-08-05T07:58:02.364Z,9.30
2022-08-05T08:00:29.765Z,7.68
2022-08-05T08:03:15.061Z,8.40
2022-08-05T08:05:49.775Z,5.97
2022-08-05T08:08:16.915Z,15.52
2022-08-05T08:10:48.696Z,8.02
2022-08-05T08:13:15.711Z,6.07
2022-08-05T08:16:35.916Z,6.35
2022-08-05T08:18:35.349Z,8.00
2022-08-05T08:21:09.814Z,7.47
2022-08-05T08:24:02.531Z,7.38
2022-08-05T08:28:59.737Z,3.25
2022-08-05T08:31:43.620Z,3.42
2022-08-05T08:34:10.098Z,6.55
2022-08-05T08:36:48.882Z,7.45
2022-08-05T08:39:19.786Z,4.15
2022-08-05T08:41:52.710Z,5.07
2022-08-05T08:45:18.731Z,6.40
2022-08-05T08:47:47.179Z,5.80
2022-08-05T08:50:31.199Z,5.43
2022-08-05T08:52:56.756Z,5.43
2022-08-05T08:55:32.173Z,3.88
2022-08-05T08:58:12.904Z,5.85
2022-08-05T09:00:41.644Z,4.75
2022-08-05T09:03:09.075Z,5.05
2022-08-05T09:05:39.004Z,4.50
2022-08-05T09:08:26.660Z,6.90
2022-08-05T09:10:53.898Z,5.03
2022-08-05T09:13:20.531Z,5.47
2022-08-05T09:15:50.806Z,5.65
2022-08-05T09:18:17.380Z,4.75
2022-08-05T09:20:45.859Z,3.85
2022-08-05T09:23:19.450Z,3.45
2022-08-05T09:26:06.830Z,6.50
2022-08-05T09:28:38.842Z,3.40
2022-08-05T09:31:18.198Z,4.45
2022-08-05T09:34:04.079Z,4.22
2022-08-05T09:36:56.352Z,4.32
2022-08-05T09:39:39.262Z,6.00
2022-08-05T09:42:13.594Z,4.20
2022-08-05T09:44:50.621Z,4.53
2022-08-05T09:47:20.794Z,4.25
2022-08-05T09:50:01.281Z,3.47
2022-08-05T09:52:36.051Z,3.38
2022-08-05T09:55:57.524Z,4.57
2022-08-05T09:57:58.688Z,2.88
2022-08-05T10:00:26.905Z,5.07
2022-08-05T10:02:54.886Z,3.15
2022-08-05T10:05:27.849Z,4.13
2022-08-05T10:08:36.744Z,6.90
2022-08-05T10:10:43.894Z,5.53
2022-08-05T10:13:10.622Z,3.33
2022-08-05T10:15:39.130Z,3.63
2022-08-05T10:18:16.673Z,3.58
2022-08-05T10:20:48.428Z,3.25
2022-08-05T10:23:34.516Z,4.03
2022-08-05T10:26:07.920Z,4.60
2022-08-05T10:28:42.727Z,3.85
2022-08-05T10:32:53.683Z,3.35
2022-08-05T10:33:59.115Z,1.63
2022-08-05T10:36:27.479Z,2.95
2022-08-05T10:39:05.214Z,2.97
2022-08-05T10:42:01.307Z,3.17
2022-08-05T10:44:29.397Z,2.05
2022-08-05T10:46:56.816Z,3.25
2022-08-05T10:49:27.147Z,4.47
2022-08-05T10:52:03.230Z,3.38
2022-08-05T10:55:01.796Z,2.58
2022-08-05T10:57:33.943Z,2.17
2022-08-05T11:00:17.871Z,4.50
2022-08-05T11:03:25.402Z,2.00
2022-08-05T11:06:15.087Z,2.33
2022-08-05T11:09:32.326Z,2.25
2022-08-05T11:12:26.644Z,2.75
2022-08-05T11:15:19.197Z,4.25
2022-08-05T11:18:09.688Z,2.38
2022-08-05T11:20:44.262Z,6.18
2022-08-05T11:24:05.129Z,1.95
2022-08-05T11:26:35.272Z,2.47
2022-08-05T11:29:11.573Z,3.90
2022-08-05T11:31:57.834Z,2.90
2022-08-05T11:34:51.032Z,2.50
2022-08-05T11:38:36.488Z,1.95
2022-08-05T11:41:14.130Z,2.58
2022-08-05T11:44:12.982Z,2.85
2022-08-05T11:47:14.146Z,2.13
2022-08-05T11:49:49.791Z,2.15
2022-08-05T11:52:29.165Z,4.57
2022-08-05T11:54:57.984Z,3.65
2022-08-05T11:57:29.285Z,3.47
2022-08-05T11:59:57.890Z,3.65
2022-08-05T12:02:31.217Z,3.40
2022-08-05T12:05:00.538Z,3.20
2022-08-05T12:08:09.256Z,3.28
2022-08-05T12:10:22.995Z,4.22
2022-08-05T12:12:59.956Z,4.10
2022-08-05T12:15:37.954Z,3.70
2022-08-05T12:18:11.073Z,3.28
2022-08-05T12:20:39.098Z,2.70
2022-08-05T12:23:12.522Z,3.67
2022-08-05T12:26:09.089Z,3.33
2022-08-05T12:28:38.924Z,5.57
2022-08-05T12:31:05.696Z,3.08
2022-08-05T12:33:36.274Z,2.20
2022-08-05T12:36:07.082Z,2.40
2022-08-05T12:38:38.035Z,5.18
2022-08-05T12:41:13.338Z,2.70
2022-08-05T12:44:11.588Z,4.00
2022-08-05T12:46:45.640Z,5.25
2022-08-05T12:49:14.958Z,3.47
2022-08-05T12:52:13.788Z,3.45
2022-08-05T12:54:49.797Z,2.13
2022-08-05T12:57:16.835Z,5.28
2022-08-05T13:01:57.839Z,3.72
2022-08-05T13:02:37.188Z,4.45
2022-08-05T13:05:07.574Z,2.63
2022-08-05T13:10:21.782Z,3.50
2022-08-05T13:12:51.322Z,4.05
2022-08-05T13:15:35.939Z,2.72
2022-08-05T13:18:08.441Z,9.45
2022-08-05T13:20:40.437Z,4.45
2022-08-05T13:23:07.600Z,3.55
2022-08-05T13:25:52.133Z,3.42
2022-08-05T13:28:21.862Z,3.35
2022-08-05T13:30:48.781Z,3.20
2022-08-05T13:34:22.108Z,3.22
2022-08-05T13:36:05.241Z,1.75
2022-08-05T13:38:38.171Z,3.05
2022-08-05T13:41:09.394Z,2.30
2022-08-05T13:43:44.163Z,2.95
2022-08-05T13:46:43.797Z,5.00
2022-08-05T13:49:10.112Z,5.00
2022-08-05T13:51:41.116Z,6.15
2022-08-05T13:54:13.445Z,0.93
2022-08-05T13:56:45.548Z,1.40
2022-08-05T13:59:24.418Z,1.85
2022-08-05T14:01:56.770Z,1.52
2022-08-05T14:04:55.949Z,2.22
2022-08-05T14:08:00.987Z,2.22
2022-08-05T14:10:19.217Z,1.50
2022-08-05T14:12:54.974Z,1.75
2022-08-05T14:16:07.758Z,2.92
2022-08-05T14:18:15.271Z,1.30
2022-08-05T14:20:47.059Z,1.30
2022-08-05T14:23:13.920Z,2.38
2022-08-05T14:25:47.465Z,1.20
2022-08-05T14:28:26.718Z,2.85
2022-08-05T14:30:54.553Z,2.17
2022-08-05T14:33:22.560Z,2.47
2022-08-05T14:35:51.493Z,1.25
2022-08-05T14:38:33.299Z,0.60
2022-08-05T14:41:06.627Z,0.70
2022-08-05T14:43:58.767Z,2.88
2022-08-05T14:46:21.887Z,1.42
2022-08-05T14:48:49.931Z,0.80
2022-08-05T14:51:17.556Z,0.82
2022-08-05T15:08:58.036Z,1.63
2022-08-05T15:11:07.972Z,0.40
2022-08-05T15:13:45.896Z,0.85
2022-08-05T15:16:16.714Z,0.80
2022-08-05T15:18:43.591Z,1.08
2022-08-05T15:21:13.949Z,1.05
2022-08-05T15:23:40.463Z,0.57
2022-08-05T15:26:06.921Z,0.57
2022-08-05T15:28:33.698Z,0.57
2022-08-05T15:31:00.199Z,1.55
2022-08-05T15:34:04.787Z,0.85
2022-08-05T15:36:25.827Z,0.57
2022-08-05T15:40:59.023Z,1.80
2022-08-05T15:41:55.911Z,1.25
2022-08-05T15:44:27.424Z,1.70
2022-08-05T15:46:54.611Z,1.65
2022-08-05T15:49:40.935Z,2.05
2022-08-05T15:52:13.269Z,1.40
2022-08-05T15:54:42.811Z,1.88
2022-08-05T15:57:09.649Z,4.50
2022-08-05T15:59:38.092Z,0.93
2022-08-05T16:02:09.477Z,1.25
2022-08-05T16:04:41.589Z,5.13
2022-08-05T16:07:10.780Z,4.85
2022-08-05T16:09:37.464Z,2.15
2022-08-05T16:12:08.655Z,1.20
2022-08-05T16:14:35.205Z,0.95
2022-08-05T16:17:01.668Z,0.95
2022-08-05T16:20:05.131Z,0.70
2022-08-05T16:22:15.896Z,0.80
2022-08-05T16:24:51.945Z,0.30
2022-08-05T16:27:18.904Z,1.40
2022-08-05T16:29:50.335Z,1.35
2022-08-05T16:32:18.339Z,0.95
2022-08-05T16:34:54.906Z,1.58
2022-08-05T16:38:15.435Z,2.47
2022-08-05T16:40:24.739Z,1.00
2022-08-05T16:42:52.093Z,1.20
2022-08-05T16:46:07.589Z,1.48
2022-08-05T16:48:05.166Z,1.80
2022-08-05T16:50:31.577Z,1.25
2022-08-05T16:52:58.842Z,0.68
2022-08-05T16:55:46.719Z,2.30
2022-08-05T16:58:13.716Z,1.27
2022-08-05T17:00:40.810Z,2.85
2022-08-05T17:03:15.143Z,1.40
2022-08-05T17:05:48.989Z,1.33
2022-08-05T17:08:35.920Z,1.10
2022-08-05T17:11:08.806Z,1.10
2022-08-05T17:13:42.195Z,2.28
2022-08-05T17:16:27.905Z,0.77
2022-08-05T17:18:55.730Z,0.47
2022-08-05T17:21:23.788Z,0.90
2022-08-05T17:24:04.711Z,1.48
2022-08-05T17:26:37.136Z,1.88
2022-08-05T17:29:07.480Z,1.08
2022-08-05T17:31:56.450Z,2.20
2022-08-05T17:34:29.895Z,1.13
2022-08-05T17:36:59.828Z,0.60
2022-08-05T17:39:33.180Z,1.02
2022-08-05T17:42:20.257Z,0.98
2022-08-05T17:44:50.871Z,0.95
2022-08-05T17:47:21.932Z,2.28
2022-08-05T17:49:52.287Z,0.98
2022-08-05T17:52:30.396Z,1.88
2022-08-05T17:54:57.689Z,2.83
2022-08-05T17:57:24.563Z,1.33
2022-08-05T18:00:04.973Z,0.50
2022-08-05T18:02:35.460Z,1.17
2022-08-05T18:05:06.372Z,0.95
2022-08-05T18:07:41.166Z,0.90
2022-08-05T18:10:20.308Z,1.50
2022-08-05T18:12:51.266Z,0.88
2022-08-05T18:15:18.024Z,1.65
2022-08-05T18:17:58.890Z,1.67
2022-08-05T18:20:29.167Z,0.68
2022-08-05T18:22:58.520Z,1.13
2022-08-05T18:25:32.975Z,1.55
2022-08-05T18:28:01.686Z,0.73
2022-08-05T18:30:32.274Z,0.68
2022-08-05T18:33:00.333Z,0.52
2022-08-05T18:35:28.271Z,1.95
2022-08-05T18:38:18.918Z,3.00
2022-08-05T18:41:56.359Z,2.10
2022-08-05T18:43:37.865Z,0.80
2022-08-05T18:46:06.971Z,0.82
2022-08-05T18:48:36.822Z,1.42
2022-08-05T18:52:04.847Z,0.52
2022-08-05T18:54:13.660Z,0.82
2022-08-05T18:56:40.779Z,1.48
2022-08-05T18:59:43.324Z,1.42
2022-08-05T19:01:57.233Z,0.80
2022-08-05T19:04:25.252Z,1.73
2022-08-05T19:06:53.787Z,2.20
2022-08-05T19:09:21.428Z,1.65
2022-08-05T19:12:00.752Z,2.53
2022-08-05T19:14:37.843Z,2.53
2022-08-05T19:17:15.562Z,3.20
2022-08-05T19:19:47.082Z,1.27
2022-08-05T19:22:17.138Z,0.50
2022-08-05T19:24:55.751Z,3.80
2022-08-05T19:27:30.453Z,2.78
2022-08-05T19:29:57.901Z,0.95
2022-08-05T19:32:26.282Z,1.73
2022-08-05T19:34:55.822Z,1.58
2022-08-05T19:37:34.893Z,1.20
2022-08-05T19:40:12.066Z,1.73
2022-08-05T19:42:39.238Z,1.73
2022-08-05T19:45:07.299Z,3.60
2022-08-05T19:47:37.118Z,3.38
2022-08-05T19:50:07.533Z,2.08
2022-08-05T19:52:37.565Z,5.07
2022-08-05T19:55:07.665Z,1.58
2022-08-05T19:58:07.044Z,1.38
2022-08-05T20:00:38.895Z,2.15
2022-08-05T20:03:08.761Z,4.22
2022-08-05T20:05:43.312Z,2.05
2022-08-05T20:08:17.699Z,1.98
2022-08-05T20:10:44.601Z,1.27
2022-08-05T20:13:16.421Z,3.22
2022-08-05T20:15:50.804Z,0.85
2022-08-05T20:18:35.989Z,3.92
2022-08-05T20:21:05.270Z,2.00
2022-08-05T20:23:40.738Z,0.90
2022-08-05T20:26:17.909Z,0.70
2022-08-05T20:28:56.204Z,1.63
2022-08-05T20:31:36.785Z,1.55
2022-08-05T20:34:10.215Z,2.13
2022-08-05T20:36:39.143Z,1.77
2022-08-05T20:39:13.146Z,1.35
2022-08-05T20:41:44.254Z,1.27
2022-08-05T20:44:18.650Z,1.25
2022-08-05T20:46:47.149Z,0.80
2022-08-05T20:49:14.246Z,1.58
2022-08-05T20:51:45.081Z,0.88
2022-08-05T20:54:20.206Z,14.45
2022-08-05T20:56:47.011Z,2.35
2022-08-05T20:59:26.503Z,2.30
2022-08-05T21:01:56.492Z,0.88
2022-08-05T21:04:26.910Z,1.65
2022-08-05T21:06:54.137Z,2.67
2022-08-05T21:09:20.778Z,2.22
2022-08-05T21:12:07.726Z,1.58
2022-08-05T21:14:35.273Z,1.35
2022-08-05T21:17:04.942Z,0.43
2022-08-05T21:19:47.401Z,0.65
2022-08-05T21:22:18.582Z,1.52
2022-08-05T21:24:51.845Z,1.70
2022-08-05T21:27:20.565Z,2.30
2022-08-05T21:29:51.080Z,1.77
2022-08-05T21:32:20.084Z,1.05
2022-08-05T21:34:55.811Z,1.92
2022-08-05T21:37:33.433Z,1.00
2022-08-05T21:40:05.719Z,1.20
2022-08-05T21:42:44.125Z,2.03
2022-08-05T21:45:12.140Z,1.55
2022-08-05T21:47:56.384Z,2.75
2022-08-05T21:50:24.095Z,0.68
2022-08-05T21:52:50.531Z,3.92
2022-08-05T21:55:21.614Z,1.13
2022-08-05T21:58:05.418Z,1.55
2022-08-05T22:00:32.026Z,3.67
2022-08-05T22:02:58.624Z,2.03
2022-08-05T22:05:27.226Z,1.90
2022-08-05T22:07:59.303Z,0.95
2022-08-05T22:10:29.114Z,1.65
2022-08-05T22:12:59.058Z,0.90
2022-08-05T22:16:01.136Z,2.15
2022-08-05T22:18:24.894Z,1.02
2022-08-05T22:20:52.480Z,4.38
2022-08-05T22:24:02.056Z,1.00
2022-08-05T22:26:42.568Z,1.33
2022-08-05T22:29:17.542Z,2.45
2022-08-05T22:31:45.540Z,2.30
2022-08-05T22:34:28.329Z,2.13
2022-08-05T22:36:56.545Z,2.20
2022-08-05T22:39:29.660Z,1.08
2022-08-05T22:42:10.231Z,1.50
2022-08-05T22:44:38.519Z,2.53
2022-08-05T22:47:05.998Z,2.15
2022-08-05T22:50:18.526Z,1.20
2022-08-05T22:52:30.594Z,1.67
2022-08-05T22:55:01.225Z,2.08
2022-08-05T22:57:34.245Z,1.08
2022-08-05T23:00:07.991Z,2.25
2022-08-05T23:02:35.606Z,2.70
2022-08-05T23:05:14.143Z,1.48
2022-08-05T23:07:44.875Z,0.90
2022-08-05T23:10:12.637Z,1.00
2022-08-05T23:12:39.250Z,1.17
2022-08-05T23:15:09.029Z,0.90
2022-08-05T23:17:37.936Z,1.27
2022-08-05T23:20:24.414Z,1.38
2022-08-05T23:22:52.799Z,1.85
2022-08-05T23:25:54.908Z,2.92
2022-08-05T23:28:10.068Z,1.88
2022-08-05T23:30:40.248Z,1.30
2022-08-05T23:33:21.871Z,1.10
2022-08-05T23:35:55.803Z,1.20
2022-08-05T23:38:24.087Z,1.98
2022-08-05T23:40:52.836Z,1.15
2022-08-05T23:43:25.091Z,2.92
2022-08-05T23:46:04.229Z,4.85
2022-08-05T23:48:30.832Z,1.95
2022-08-05T23:50:57.444Z,3.15
2022-08-05T23:53:28.332Z,1.65
2022-08-05T23:56:12.055Z,1.02
2022-08-05T23:58:38.589Z,6.85
